sensor_id;sensor_type;location;lat;lon;timestamp;pressure;altitude;pressure_sealevel;temperature;humidity
75221;BME280;63802;53.232;6.570;2023-07-31T00:01:18;100862.91;;;15.71;100.00
75221;BME280;63802;53.232;6.570;2023-07-31T00:03:44;100873.50;;;15.69;100.00
75221;BME280;63802;53.232;6.570;2023-07-31T00:06:09;100868.78;;;15.70;100.00
75221;BME280;63802;53.232;6.570;2023-07-31T00:08:35;100860.94;;;15.68;100.00
75221;BME280;63802;53.232;6.570;2023-07-31T00:11:00;100857.38;;;15.68;100.00
75221;BME280;63802;53.232;6.570;2023-07-31T00:13:25;100844.81;;;15.63;100.00
75221;BME280;63802;53.232;6.570;2023-07-31T00:15:51;100844.03;;;15.63;100.00
75221;BME280;63802;53.232;6.570;2023-07-31T00:18:17;100833.06;;;15.59;100.00
75221;BME280;63802;53.232;6.570;2023-07-31T00:20:42;100844.84;;;15.56;100.00
75221;BME280;63802;53.232;6.570;2023-07-31T00:23:08;100843.28;;;15.48;100.00
75221;BME280;63802;53.232;6.570;2023-07-31T00:25:33;100844.84;;;15.42;100.00
75221;BME280;63802;53.232;6.570;2023-07-31T00:27:59;100852.69;;;15.40;100.00
75221;BME280;63802;53.232;6.570;2023-07-31T00:30:24;100846.03;;;15.37;100.00
75221;BME280;63802;53.232;6.570;2023-07-31T00:32:50;100836.97;;;15.30;100.00
75221;BME280;63802;53.232;6.570;2023-07-31T00:35:18;100832.25;;;15.27;100.00
75221;BME280;63802;53.232;6.570;2023-07-31T00:37:44;100818.13;;;15.18;100.00
75221;BME280;63802;53.232;6.570;2023-07-31T00:40:12;100829.53;;;15.20;100.00
75221;BME280;63802;53.232;6.570;2023-07-31T00:42:39;100826.00;;;15.16;100.00
75221;BME280;63802;53.232;6.570;2023-07-31T00:45:04;100830.31;;;15.13;100.00
75221;BME280;63802;53.232;6.570;2023-07-31T00:47:30;100818.13;;;15.04;100.00
75221;BME280;63802;53.232;6.570;2023-07-31T00:49:56;100846.41;;;15.15;100.00
75221;BME280;63802;53.232;6.570;2023-07-31T00:52:23;100836.19;;;15.12;100.00
75221;BME280;63802;53.232;6.570;2023-07-31T00:54:49;100831.88;;;15.11;100.00
75221;BME280;63802;53.232;6.570;2023-07-31T00:57:15;100826.00;;;15.09;100.00
75221;BME280;63802;53.232;6.570;2023-07-31T00:59:41;100842.88;;;15.11;100.00
75221;BME280;63802;53.232;6.570;2023-07-31T01:02:06;100825.97;;;15.05;100.00
75221;BME280;63802;53.232;6.570;2023-07-31T01:04:33;100814.59;;;15.00;100.00
75221;BME280;63802;53.232;6.570;2023-07-31T01:08:15;100831.09;;;15.07;100.00
75221;BME280;63802;53.232;6.570;2023-07-31T01:10:13;100825.19;;;15.05;100.00
75221;BME280;63802;53.232;6.570;2023-07-31T01:12:41;100812.66;;;14.97;100.00
75221;BME280;63802;53.232;6.570;2023-07-31T01:15:09;100823.25;;;15.02;100.00
75221;BME280;63802;53.232;6.570;2023-07-31T01:17:41;100822.84;;;15.00;100.00
75221;BME280;63802;53.232;6.570;2023-07-31T01:20:14;100816.16;;;15.01;100.00
75221;BME280;63802;53.232;6.570;2023-07-31T01:23:03;100814.22;;;15.01;100.00
75221;BME280;63802;53.232;6.570;2023-07-31T01:25:54;100817.75;;;15.02;100.00
75221;BME280;63802;53.232;6.570;2023-07-31T01:28:31;100814.22;;;15.01;100.00
75221;BME280;63802;53.232;6.570;2023-07-31T01:31:00;100807.91;;;14.97;100.00
75221;BME280;63802;53.232;6.570;2023-07-31T01:33:27;100816.16;;;15.01;100.00
75221;BME280;63802;53.232;6.570;2023-07-31T01:35:53;100819.31;;;15.03;100.00
75221;BME280;63802;53.232;6.570;2023-07-31T01:38:22;100809.50;;;14.98;100.00
75221;BME280;63802;53.232;6.570;2023-07-31T01:40:51;100803.59;;;14.93;100.00
75221;BME280;63802;53.232;6.570;2023-07-31T01:43:18;100811.06;;;15.03;100.00
75221;BME280;63802;53.232;6.570;2023-07-31T01:45:43;100811.06;;;15.03;100.00
75221;BME280;63802;53.232;6.570;2023-07-31T01:48:09;100812.66;;;15.04;100.00
75221;BME280;63802;53.232;6.570;2023-07-31T01:50:34;100782.00;;;14.88;100.00
75221;BME280;63802;53.232;6.570;2023-07-31T01:53:00;100802.44;;;15.01;100.00
75221;BME280;63802;53.232;6.570;2023-07-31T01:55:25;100796.16;;;14.97;100.00
75221;BME280;63802;53.232;6.570;2023-07-31T01:57:51;100794.59;;;14.99;100.00
75221;BME280;63802;53.232;6.570;2023-07-31T02:00:18;100782.03;;;14.95;100.00
75221;BME280;63802;53.232;6.570;2023-07-31T02:02:43;100785.94;;;15.01;100.00
75221;BME280;63802;53.232;6.570;2023-07-31T02:05:09;100781.59;;;15.00;100.00
75221;BME280;63802;53.232;6.570;2023-07-31T02:07:34;100783.59;;;15.03;100.00
75221;BME280;63802;53.232;6.570;2023-07-31T02:10:00;100768.69;;;14.97;100.00
75221;BME280;63802;53.232;6.570;2023-07-31T02:12:26;100782.41;;;15.04;100.00
75221;BME280;63802;53.232;6.570;2023-07-31T02:14:51;100778.47;;;15.05;100.00
75221;BME280;63802;53.232;6.570;2023-07-31T02:17:16;100764.34;;;14.99;100.00
75221;BME280;63802;53.232;6.570;2023-07-31T02:19:42;100767.88;;;15.00;100.00
75221;BME280;63802;53.232;6.570;2023-07-31T02:22:07;100749.03;;;14.88;100.00
75221;BME280;63802;53.232;6.570;2023-07-31T02:24:33;100749.44;;;14.90;100.00
75221;BME280;63802;53.232;6.570;2023-07-31T02:26:58;100752.19;;;14.97;100.00
75221;BME280;63802;53.232;6.570;2023-07-31T02:29:24;100757.31;;;14.95;100.00
75221;BME280;63802;53.232;6.570;2023-07-31T02:31:49;100758.44;;;14.97;100.00
75221;BME280;63802;53.232;6.570;2023-07-31T02:34:18;100763.19;;;14.97;100.00
75221;BME280;63802;53.232;6.570;2023-07-31T02:36:43;100752.19;;;14.97;100.00
75221;BME280;63802;53.232;6.570;2023-07-31T02:39:09;100755.31;;;14.95;100.00
75221;BME280;63802;53.232;6.570;2023-07-31T02:41:34;100755.31;;;14.99;100.00
75221;BME280;63802;53.232;6.570;2023-07-31T02:44:00;100754.53;;;14.98;100.00
75221;BME280;63802;53.232;6.570;2023-07-31T02:46:25;100746.69;;;14.93;100.00
75221;BME280;63802;53.232;6.570;2023-07-31T02:48:50;100746.69;;;14.97;100.00
75221;BME280;63802;53.232;6.570;2023-07-31T02:51:16;100734.13;;;14.89;100.00
75221;BME280;63802;53.232;6.570;2023-07-31T02:53:42;100738.47;;;14.90;100.00
75221;BME280;63802;53.232;6.570;2023-07-31T02:56:07;100737.25;;;14.91;100.00
75221;BME280;63802;53.232;6.570;2023-07-31T02:58:33;100744.72;;;14.94;100.00
75221;BME280;63802;53.232;6.570;2023-07-31T03:00:59;100738.06;;;14.95;100.00
75221;BME280;63802;53.232;6.570;2023-07-31T03:03:24;100713.72;;;14.83;100.00
75221;BME280;63802;53.232;6.570;2023-07-31T03:05:49;100712.94;;;14.82;100.00
75221;BME280;63802;53.232;6.570;2023-07-31T03:08:15;100716.88;;;14.85;100.00
75221;BME280;63802;53.232;6.570;2023-07-31T03:10:41;100725.50;;;14.94;100.00
75221;BME280;63802;53.232;6.570;2023-07-31T03:13:06;100720.00;;;14.87;100.00
75221;BME280;63802;53.232;6.570;2023-07-31T03:15:32;100716.06;;;14.81;100.00
75221;BME280;63802;53.232;6.570;2023-07-31T03:17:57;100725.88;;;14.89;100.00
75221;BME280;63802;53.232;6.570;2023-07-31T03:20:22;100736.09;;;14.92;100.00
75221;BME280;63802;53.232;6.570;2023-07-31T03:22:48;100736.47;;;14.94;100.00
75221;BME280;63802;53.232;6.570;2023-07-31T03:25:14;100712.94;;;14.82;100.00
75221;BME280;63802;53.232;6.570;2023-07-31T03:27:39;100732.56;;;14.95;100.00
75221;BME280;63802;53.232;6.570;2023-07-31T03:30:05;100720.38;;;14.89;100.00
75221;BME280;63802;53.232;6.570;2023-07-31T03:32:31;100726.28;;;14.84;100.00
75221;BME280;63802;53.232;6.570;2023-07-31T03:34:57;100732.53;;;14.88;100.00
75221;BME280;63802;53.232;6.570;2023-07-31T03:37:23;100731.78;;;14.84;100.00
75221;BME280;63802;53.232;6.570;2023-07-31T03:39:48;100732.53;;;14.88;100.00
75221;BME280;63802;53.232;6.570;2023-07-31T03:42:13;100712.94;;;14.78;100.00
75221;BME280;63802;53.232;6.570;2023-07-31T03:44:40;100720.78;;;14.84;100.00
75221;BME280;63802;53.232;6.570;2023-07-31T03:47:05;100718.41;;;14.86;100.00
75221;BME280;63802;53.232;6.570;2023-07-31T03:49:31;100721.16;;;14.86;100.00
75221;BME280;63802;53.232;6.570;2023-07-31T03:51:56;100711.38;;;14.85;100.00
75221;BME280;63802;53.232;6.570;2023-07-31T03:54:22;100704.69;;;14.86;100.00
75221;BME280;63802;53.232;6.570;2023-07-31T03:56:47;100713.31;;;14.88;100.00
75221;BME280;63802;53.232;6.570;2023-07-31T03:59:13;100709.00;;;14.87;100.00
75221;BME280;63802;53.232;6.570;2023-07-31T04:01:38;100694.50;;;14.75;100.00
75221;BME280;63802;53.232;6.570;2023-07-31T04:04:04;100705.88;;;14.85;100.00
75221;BME280;63802;53.232;6.570;2023-07-31T04:06:30;100709.78;;;14.91;100.00
75221;BME280;63802;53.232;6.570;2023-07-31T04:08:55;100709.00;;;14.90;100.00
75221;BME280;63802;53.232;6.570;2023-07-31T04:11:21;100702.31;;;14.88;100.00
75221;BME280;63802;53.232;6.570;2023-07-31T04:13:46;100697.22;;;14.86;100.00
75221;BME280;63802;53.232;6.570;2023-07-31T04:16:12;100700.75;;;14.87;100.00
75221;BME280;63802;53.232;6.570;2023-07-31T04:18:37;100705.88;;;14.85;100.00
75221;BME280;63802;53.232;6.570;2023-07-31T04:21:03;100700.38;;;14.85;100.00
75221;BME280;63802;53.232;6.570;2023-07-31T04:23:28;100688.59;;;14.84;100.00
75221;BME280;63802;53.232;6.570;2023-07-31T04:25:54;100684.66;;;14.89;100.00
75221;BME280;63802;53.232;6.570;2023-07-31T04:28:19;100668.59;;;14.80;100.00
75221;BME280;63802;53.232;6.570;2023-07-31T04:30:45;100675.25;;;14.86;100.00
75221;BME280;63802;53.232;6.570;2023-07-31T04:33:11;100690.19;;;14.85;100.00
75221;BME280;63802;53.232;6.570;2023-07-31T04:35:36;100695.66;;;14.89;100.00
75221;BME280;63802;53.232;6.570;2023-07-31T04:38:02;100689.78;;;14.83;100.00
75221;BME280;63802;53.232;6.570;2023-07-31T04:40:27;100691.75;;;14.90;100.00
75221;BME280;63802;53.232;6.570;2023-07-31T04:42:53;100688.19;;;14.86;100.00
75221;BME280;63802;53.232;6.570;2023-07-31T04:45:18;100674.09;;;14.76;100.00
75221;BME280;63802;53.232;6.570;2023-07-31T04:47:44;100676.06;;;14.80;100.00
75221;BME280;63802;53.232;6.570;2023-07-31T04:50:09;100689.00;;;14.90;100.00
75221;BME280;63802;53.232;6.570;2023-07-31T04:52:35;100690.53;;;14.91;100.00
75221;BME280;63802;53.232;6.570;2023-07-31T04:55:00;100679.94;;;14.86;100.00
75221;BME280;63802;53.232;6.570;2023-07-31T04:57:26;100688.59;;;14.84;100.00
75221;BME280;63802;53.232;6.570;2023-07-31T04:59:52;100676.81;;;14.84;100.00
75221;BME280;63802;53.232;6.570;2023-07-31T05:02:17;100670.94;;;14.82;100.00
75221;BME280;63802;53.232;6.570;2023-07-31T05:04:42;100674.47;;;14.86;100.00
75221;BME280;63802;53.232;6.570;2023-07-31T05:07:08;100666.22;;;14.86;100.00
75221;BME280;63802;53.232;6.570;2023-07-31T05:09:34;100678.38;;;14.92;100.00
75221;BME280;63802;53.232;6.570;2023-07-31T05:11:59;100679.94;;;14.93;100.00
75221;BME280;63802;53.232;6.570;2023-07-31T05:14:25;100665.03;;;14.90;100.00
75221;BME280;63802;53.232;6.570;2023-07-31T05:16:54;100677.97;;;14.93;100.00
75221;BME280;63802;53.232;6.570;2023-07-31T05:19:19;100672.09;;;14.95;100.00
75221;BME280;63802;53.232;6.570;2023-07-31T05:21:45;100663.47;;;14.96;100.00
75221;BME280;63802;53.232;6.570;2023-07-31T05:24:13;100665.81;;;14.98;100.00
75221;BME280;63802;53.232;6.570;2023-07-31T05:26:39;100665.03;;;15.01;100.00
75221;BME280;63802;53.232;6.570;2023-07-31T05:29:04;100654.78;;;15.05;100.00
75221;BME280;63802;53.232;6.570;2023-07-31T05:31:30;100665.00;;;15.08;100.00
75221;BME280;63802;53.232;6.570;2023-07-31T05:33:57;100656.75;;;15.11;100.00
75221;BME280;63802;53.232;6.570;2023-07-31T05:36:23;100649.69;;;15.14;100.00
75221;BME280;63802;53.232;6.570;2023-07-31T05:38:48;100657.91;;;15.21;100.00
75221;BME280;63802;53.232;6.570;2023-07-31T05:41:14;100654.75;;;15.19;100.00
75221;BME280;63802;53.232;6.570;2023-07-31T05:43:39;100646.13;;;15.17;100.00
75221;BME280;63802;53.232;6.570;2023-07-31T05:46:05;100646.94;;;15.14;100.00
75221;BME280;63802;53.232;6.570;2023-07-31T05:48:32;100646.94;;;15.14;100.00
75221;BME280;63802;53.232;6.570;2023-07-31T05:50:59;100635.16;;;15.13;100.00
75221;BME280;63802;53.232;6.570;2023-07-31T05:53:24;100639.84;;;15.20;100.00
75221;BME280;63802;53.232;6.570;2023-07-31T05:55:50;100642.19;;;15.21;100.00
75221;BME280;63802;53.232;6.570;2023-07-31T05:58:15;100633.13;;;15.24;100.00
75221;BME280;63802;53.232;6.570;2023-07-31T06:00:41;100643.75;;;15.26;100.00
75221;BME280;63802;53.232;6.570;2023-07-31T06:03:06;100626.84;;;15.27;100.00
75221;BME280;63802;53.232;6.570;2023-07-31T06:05:32;100631.16;;;15.32;100.00
75221;BME280;63802;53.232;6.570;2023-07-31T06:07:57;100622.50;;;15.37;100.00
75221;BME280;63802;53.232;6.570;2023-07-31T06:10:23;100630.31;;;15.42;100.00
75221;BME280;63802;53.232;6.570;2023-07-31T06:12:48;100624.06;;;15.45;100.00
75221;BME280;63802;53.232;6.570;2023-07-31T06:15:14;100618.56;;;15.45;100.00
75221;BME280;63802;53.232;6.570;2023-07-31T06:17:40;100620.13;;;15.50;100.00
75221;BME280;63802;53.232;6.570;2023-07-31T06:20:07;100622.44;;;15.51;100.00
75221;BME280;63802;53.232;6.570;2023-07-31T06:22:33;100618.53;;;15.52;100.00
75221;BME280;63802;53.232;6.570;2023-07-31T06:24:58;100613.78;;;15.56;100.00
75221;BME280;63802;53.232;6.570;2023-07-31T06:27:24;100617.72;;;15.55;100.00
75221;BME280;63802;53.232;6.570;2023-07-31T06:29:49;100613.00;;;15.59;100.00
75221;BME280;63802;53.232;6.570;2023-07-31T06:32:15;100610.63;;;15.61;100.00
75221;BME280;63802;53.232;6.570;2023-07-31T06:34:40;100611.31;;;15.72;100.00
75221;BME280;63802;53.232;6.570;2023-07-31T06:37:05;100607.34;;;15.80;100.00
75221;BME280;63802;53.232;6.570;2023-07-31T06:39:31;100607.31;;;15.84;100.00
75221;BME280;63802;53.232;6.570;2023-07-31T06:41:56;100596.34;;;15.80;100.00
75221;BME280;63802;53.232;6.570;2023-07-31T06:44:22;100586.91;;;15.81;100.00
75221;BME280;63802;53.232;6.570;2023-07-31T06:46:47;100596.63;;;15.96;100.00
75221;BME280;63802;53.232;6.570;2023-07-31T06:49:12;100607.22;;;16.01;100.00
75221;BME280;63802;53.232;6.570;2023-07-31T06:51:40;100600.09;;;16.07;100.00
75221;BME280;63802;53.232;6.570;2023-07-31T06:54:06;100594.44;;;16.25;100.00
75221;BME280;63802;53.232;6.570;2023-07-31T06:56:31;100596.66;;;16.41;100.00
75221;BME280;63802;53.232;6.570;2023-07-31T06:58:57;100595.81;;;16.47;100.00
75221;BME280;63802;53.232;6.570;2023-07-31T07:01:22;100593.81;;;16.55;100.00
75221;BME280;63802;53.232;6.570;2023-07-31T07:03:48;100586.22;;;16.66;100.00
75221;BME280;63802;53.232;6.570;2023-07-31T07:06:16;100586.91;;;16.77;100.00
75221;BME280;63802;53.232;6.570;2023-07-31T07:08:42;100579.72;;;16.87;100.00
75221;BME280;63802;53.232;6.570;2023-07-31T07:11:07;100576.59;;;16.81;100.00
75221;BME280;63802;53.232;6.570;2023-07-31T07:13:33;100575.56;;;16.68;100.00
75221;BME280;63802;53.232;6.570;2023-07-31T07:15:59;100570.88;;;16.65;100.00
75221;BME280;63802;53.232;6.570;2023-07-31T07:18:24;100569.31;;;16.64;100.00
75221;BME280;63802;53.232;6.570;2023-07-31T07:20:51;100569.72;;;16.62;100.00
75221;BME280;63802;53.232;6.570;2023-07-31T07:23:16;100568.13;;;16.65;100.00
75221;BME280;63802;53.232;6.570;2023-07-31T07:25:43;100562.56;;;16.68;100.00
75221;BME280;63802;53.232;6.570;2023-07-31T07:28:09;100552.41;;;16.62;100.00
75221;BME280;63802;53.232;6.570;2023-07-31T07:30:34;100554.72;;;16.67;100.00
75221;BME280;63802;53.232;6.570;2023-07-31T07:33:00;100558.31;;;16.60;100.00
75221;BME280;63802;53.232;6.570;2023-07-31T07:35:25;100557.19;;;16.58;100.00
75221;BME280;63802;53.232;6.570;2023-07-31T07:37:51;100553.66;;;16.54;100.00
75221;BME280;63802;53.232;6.570;2023-07-31T07:40:17;100554.03;;;16.56;100.00
75221;BME280;63802;53.232;6.570;2023-07-31T07:42:43;100549.28;;;16.60;100.00
75221;BME280;63802;53.232;6.570;2023-07-31T07:45:09;100543.78;;;16.60;100.00
75221;BME280;63802;53.232;6.570;2023-07-31T07:47:34;100543.00;;;16.56;100.00
75221;BME280;63802;53.232;6.570;2023-07-31T07:50:00;100544.25;;;16.51;100.00
75221;BME280;63802;53.232;6.570;2023-07-31T07:52:25;100539.88;;;16.54;100.00
75221;BME280;63802;53.232;6.570;2023-07-31T07:54:51;100538.38;;;16.46;100.00
75221;BME280;63802;53.232;6.570;2023-07-31T07:57:16;100528.97;;;16.43;100.00
75221;BME280;63802;53.232;6.570;2023-07-31T07:59:42;100538.38;;;16.46;100.00
75221;BME280;63802;53.232;6.570;2023-07-31T08:02:07;100537.22;;;16.43;100.00
75221;BME280;63802;53.232;6.570;2023-07-31T08:04:33;100523.84;;;16.42;100.00
75221;BME280;63802;53.232;6.570;2023-07-31T08:06:58;100529.44;;;16.35;100.00
75221;BME280;63802;53.232;6.570;2023-07-31T08:09:24;100529.44;;;16.35;100.00
75221;BME280;63802;53.232;6.570;2023-07-31T08:11:49;100529.78;;;16.40;100.00
75221;BME280;63802;53.232;6.570;2023-07-31T08:14:15;100529.78;;;16.40;100.00
75221;BME280;63802;53.232;6.570;2023-07-31T08:16:40;100524.16;;;16.51;100.00
75221;BME280;63802;53.232;6.570;2023-07-31T08:19:06;100518.97;;;16.60;100.00
75221;BME280;63802;53.232;6.570;2023-07-31T08:21:32;100520.91;;;16.63;100.00
75221;BME280;63802;53.232;6.570;2023-07-31T08:23:57;100515.31;;;16.70;100.00
75221;BME280;63802;53.232;6.570;2023-07-31T08:26:22;100509.09;;;16.96;100.00
75221;BME280;63802;53.232;6.570;2023-07-31T08:28:48;100508.72;;;16.94;100.00
75221;BME280;63802;53.232;6.570;2023-07-31T08:31:13;100521.28;;;16.99;100.00
75221;BME280;63802;53.232;6.570;2023-07-31T08:33:39;100507.78;;;17.08;100.00
75221;BME280;63802;53.232;6.570;2023-07-31T08:36:06;100517.19;;;17.10;100.00
75221;BME280;63802;53.232;6.570;2023-07-31T08:38:31;100508.25;;;16.99;100.00
75221;BME280;63802;53.232;6.570;2023-07-31T08:40:57;100496.78;;;17.04;100.00
75221;BME280;63802;53.232;6.570;2023-07-31T08:43:25;100505.69;;;17.15;100.00
75221;BME280;63802;53.232;6.570;2023-07-31T08:45:51;100498.97;;;17.16;100.00
75221;BME280;63802;53.232;6.570;2023-07-31T08:48:17;100494.09;;;17.27;100.00
75221;BME280;63802;53.232;6.570;2023-07-31T08:50:44;100494.09;;;17.27;100.00
75221;BME280;63802;53.232;6.570;2023-07-31T08:53:10;100497.44;;;17.15;100.00
75221;BME280;63802;53.232;6.570;2023-07-31T08:55:38;100490.31;;;17.18;100.00
75221;BME280;63802;53.232;6.570;2023-07-31T08:58:04;100497.03;;;17.13;100.00
75221;BME280;63802;53.232;6.570;2023-07-31T09:00:31;100499.69;;;17.20;100.00
75221;BME280;63802;53.232;6.570;2023-07-31T09:03:11;100500.38;;;17.28;100.00
75221;BME280;63802;53.232;6.570;2023-07-31T09:05:39;100486.91;;;17.33;100.00
75221;BME280;63802;53.232;6.570;2023-07-31T09:08:07;100485.19;;;17.16;100.00
75221;BME280;63802;53.232;6.570;2023-07-31T09:10:35;100482.13;;;17.37;100.00
75221;BME280;63802;53.232;6.570;2023-07-31T09:13:06;100487.03;;;17.26;100.00
75221;BME280;63802;53.232;6.570;2023-07-31T09:15:32;100488.16;;;17.29;100.00
75221;BME280;63802;53.232;6.570;2023-07-31T09:18:03;100485.97;;;17.43;100.00
75221;BME280;63802;53.232;6.570;2023-07-31T09:20:29;100486.09;;;17.36;100.00
75221;BME280;63802;53.232;6.570;2023-07-31T09:22:55;100479.63;;;17.47;100.00
75221;BME280;63802;53.232;6.570;2023-07-31T09:25:25;100477.88;;;17.60;100.00
75221;BME280;63802;53.232;6.570;2023-07-31T09:28:03;100480.63;;;17.60;100.00
75221;BME280;63802;53.232;6.570;2023-07-31T09:30:29;100481.09;;;17.55;100.00
75221;BME280;63802;53.232;6.570;2023-07-31T09:33:03;100485.78;;;17.58;100.00
75221;BME280;63802;53.232;6.570;2023-07-31T09:35:32;100477.97;;;17.53;100.00
75221;BME280;63802;53.232;6.570;2023-07-31T09:38:06;100488.97;;;17.56;100.00
75221;BME280;63802;53.232;6.570;2023-07-31T09:40:33;100470.75;;;17.62;100.00
75221;BME280;63802;53.232;6.570;2023-07-31T09:43:00;100476.13;;;17.69;100.00
75221;BME280;63802;53.232;6.570;2023-07-31T09:45:27;100466.56;;;17.77;100.00
75221;BME280;63802;53.232;6.570;2023-07-31T09:47:54;100463.97;;;17.90;100.00
75221;BME280;63802;53.232;6.570;2023-07-31T09:50:24;100462.41;;;17.89;100.00
75221;BME280;63802;53.232;6.570;2023-07-31T09:52:53;100465.97;;;17.89;100.00
75221;BME280;63802;53.232;6.570;2023-07-31T09:55:19;100456.53;;;17.87;100.00
75221;BME280;63802;53.232;6.570;2023-07-31T09:57:46;100451.94;;;18.00;100.00
75221;BME280;63802;53.232;6.570;2023-07-31T10:00:13;100450.97;;;18.10;100.00
75221;BME280;63802;53.232;6.570;2023-07-31T10:02:41;100447.72;;;18.15;100.00
75221;BME280;63802;53.232;6.570;2023-07-31T10:05:07;100440.94;;;18.20;100.00
75221;BME280;63802;53.232;6.570;2023-07-31T10:07:39;100445.97;;;18.25;100.00
75221;BME280;63802;53.232;6.570;2023-07-31T10:10:07;100432.97;;;18.45;100.00
75221;BME280;63802;53.232;6.570;2023-07-31T10:12:34;100434.25;;;18.60;100.00
75221;BME280;63802;53.232;6.570;2023-07-31T10:15:02;100437.78;;;18.60;100.00
75221;BME280;63802;53.232;6.570;2023-07-31T10:17:29;100433.97;;;18.54;100.00
75221;BME280;63802;53.232;6.570;2023-07-31T10:19:59;100442.88;;;18.42;100.00
75221;BME280;63802;53.232;6.570;2023-07-31T10:22:28;100443.44;;;18.34;100.00
75221;BME280;63802;53.232;6.570;2023-07-31T10:24:57;100440.41;;;18.28;100.00
75221;BME280;63802;53.232;6.570;2023-07-31T10:27:23;100441.72;;;18.20;100.00
75221;BME280;63802;53.232;6.570;2023-07-31T10:29:49;100437.63;;;18.28;100.00
75221;BME280;63802;53.232;6.570;2023-07-31T10:32:17;100435.34;;;18.43;100.00
75221;BME280;63802;53.232;6.570;2023-07-31T10:34:42;100432.13;;;18.48;100.00
75221;BME280;63802;53.232;6.570;2023-07-31T10:39:57;100428.94;;;18.49;100.00
75221;BME280;63802;53.232;6.570;2023-07-31T10:42:36;100436.47;;;18.45;100.00
75221;BME280;63802;53.232;6.570;2023-07-31T10:45:05;100430.03;;;18.32;100.00
75221;BME280;63802;53.232;6.570;2023-07-31T10:47:45;100429.97;;;18.36;100.00
75221;BME280;63802;53.232;6.570;2023-07-31T10:50:22;100430.50;;;18.50;100.00
75221;BME280;63802;53.232;6.570;2023-07-31T10:52:51;100430.94;;;18.45;100.00
75221;BME280;63802;53.232;6.570;2023-07-31T10:55:39;100430.59;;;18.47;100.00
75221;BME280;63802;53.232;6.570;2023-07-31T11:00:33;100431.72;;;18.69;100.00
75221;BME280;63802;53.232;6.570;2023-07-31T11:03:07;100430.31;;;18.97;100.00
75221;BME280;63802;53.232;6.570;2023-07-31T11:08:27;100436.03;;;19.22;100.00
75221;BME280;63802;53.232;6.570;2023-07-31T11:13:31;100429.16;;;19.46;100.00
75221;BME280;63802;53.232;6.570;2023-07-31T11:15:57;100424.38;;;19.30;100.00
75221;BME280;63802;53.232;6.570;2023-07-31T11:18:23;100426.22;;;19.37;100.00
75221;BME280;63802;53.232;6.570;2023-07-31T11:20:48;100416.94;;;19.27;100.00
75221;BME280;63802;53.232;6.570;2023-07-31T11:23:16;100422.56;;;19.24;100.00
75221;BME280;63802;53.232;6.570;2023-07-31T11:25:42;100422.75;;;19.17;100.00
75221;BME280;63802;53.232;6.570;2023-07-31T11:28:09;100428.44;;;19.10;100.00
75221;BME280;63802;53.232;6.570;2023-07-31T11:30:35;100425.31;;;19.08;100.00
75221;BME280;63802;53.232;6.570;2023-07-31T11:33:03;100433.06;;;18.97;100.00
75221;BME280;63802;53.232;6.570;2023-07-31T11:35:33;100426.09;;;19.08;100.00
75221;BME280;63802;53.232;6.570;2023-07-31T11:37:58;100426.13;;;18.89;100.00
75221;BME280;63802;53.232;6.570;2023-07-31T11:40:24;100433.03;;;18.81;100.00
75221;BME280;63802;53.232;6.570;2023-07-31T11:42:58;100438.44;;;18.68;100.00
75221;BME280;63802;53.232;6.570;2023-07-31T11:45:26;100430.34;;;18.57;100.00
75221;BME280;63802;53.232;6.570;2023-07-31T11:47:54;100422.56;;;18.52;100.00
75221;BME280;63802;53.232;6.570;2023-07-31T11:50:20;100423.34;;;18.53;100.00
75221;BME280;63802;53.232;6.570;2023-07-31T11:52:46;100418.28;;;18.67;100.00
75221;BME280;63802;53.232;6.570;2023-07-31T11:55:13;100418.72;;;18.86;100.00
75221;BME280;63802;53.232;6.570;2023-07-31T11:57:41;100411.75;;;18.78;100.00
75221;BME280;63802;53.232;6.570;2023-07-31T12:00:10;100425.94;;;18.80;100.00
75221;BME280;63802;53.232;6.570;2023-07-31T12:02:39;100420.09;;;18.94;100.00
75221;BME280;63802;53.232;6.570;2023-07-31T12:05:11;100416.81;;;18.99;100.00
75221;BME280;63802;53.232;6.570;2023-07-31T12:07:49;100414.16;;;19.11;100.00
75221;BME280;63802;53.232;6.570;2023-07-31T12:10:31;100415.81;;;19.25;100.00
75221;BME280;63802;53.232;6.570;2023-07-31T12:13:08;100420.50;;;19.28;100.00
75221;BME280;63802;53.232;6.570;2023-07-31T12:15:39;100409.19;;;19.55;100.00
75221;BME280;63802;53.232;6.570;2023-07-31T12:18:07;100415.69;;;19.48;100.00
75221;BME280;63802;53.232;6.570;2023-07-31T12:20:40;100414.75;;;19.55;100.00
75221;BME280;63802;53.232;6.570;2023-07-31T12:23:07;100412.75;;;19.55;100.00
75221;BME280;63802;53.232;6.570;2023-07-31T12:25:32;100422.69;;;19.53;100.00
75221;BME280;63802;53.232;6.570;2023-07-31T12:28:04;100422.09;;;19.45;100.00
75221;BME280;63802;53.232;6.570;2023-07-31T12:30:32;100420.84;;;19.30;100.00
75221;BME280;63802;53.232;6.570;2023-07-31T12:33:03;100425.50;;;19.33;100.00
75221;BME280;63802;53.232;6.570;2023-07-31T12:35:35;100423.72;;;19.43;100.00
75221;BME280;63802;53.232;6.570;2023-07-31T12:38:02;100417.50;;;19.55;100.00
75221;BME280;63802;53.232;6.570;2023-07-31T12:40:30;100417.56;;;19.51;100.00
75221;BME280;63802;53.232;6.570;2023-07-31T12:42:56;100426.59;;;19.55;100.00
75221;BME280;63802;53.232;6.570;2023-07-31T12:45:21;100417.25;;;19.49;100.00
75221;BME280;63802;53.232;6.570;2023-07-31T12:47:48;100412.94;;;19.48;100.00
75221;BME280;63802;53.232;6.570;2023-07-31T12:50:13;100409.09;;;19.58;100.00